PWSweather.com
Personal Weather Stations
Station Observations
KCOBLACK1
Chalet Park, Black Hawk, CO 80422

Chalet ParkBlack Hawk, CO 80422

Lat: 39.8294, Lon: -105.48

Elevation: 9370

Station Type: Vantage Pro2

http://www.oscaranddeb.com/weather

High Low Average
Temperature 60.9°F16.1°F 37.9°F3.3°F 48.2°F9.0°F
Dew Point 47.8°F8.8°F 34.7°F1.5°F 41.4°F5.2°F
Winds 6.5 mph NE10.5 mph NE Calm Calm 2.8 mph 4.5 mph
Wind Gusts 14.0 mph22.5 mph -- 7.1 mph11.4 mph
Humidity 90% 57% 78%
Pressure 30.15 in1021.00 in 30.04 in1017.30 in -
Precipitation 0.00 in0.00 in - -
Hour Temp Dew Point Humidity Winds Wind Gusts Pressure Precip Precip Rate Daily Precip Total
12:00 AM 39.6°F4.2°C 35.8°F2.1°C 86% 3.1 mph NE5.0 kmh NE 4.0 mph6.4 kmh 30.11 in1019.6 mb 0.00 in0.0 mm 0.00 in0.0 mm 0.01 in0.3 mm
12:05 AM 39.8°F4.3°C 36.0°F2.2°C 86% 3.1 mph NE5.0 kmh NE 4.0 mph6.4 kmh 30.11 in1019.6 mb 0.00 in0.0 mm 0.00 in0.0 mm 0.00 in0.0 mm
12:10 AM 40.0°F4.4°C 35.9°F2.2°C 85% 3.0 mph NE4.8 kmh NE 4.0 mph6.4 kmh 30.11 in1019.6 mb 0.00 in0.0 mm 0.00 in0.0 mm 0.00 in0.0 mm
12:15 AM 39.9°F4.4°C 35.8°F2.1°C 85% 2.1 mph NE3.4 kmh NE 4.0 mph6.4 kmh 30.11 in1019.6 mb 0.00 in0.0 mm 0.00 in0.0 mm 0.00 in0.0 mm
12:20 AM 39.9°F4.4°C 35.8°F2.1°C 85% 2.5 mph NE4.0 kmh NE 4.0 mph6.4 kmh 30.11 in1019.6 mb 0.00 in0.0 mm 0.00 in0.0 mm 0.00 in0.0 mm
12:25 AM 39.9°F4.4°C 35.8°F2.1°C 85% 2.3 mph NE3.7 kmh NE 4.0 mph6.4 kmh 30.11 in1019.6 mb 0.00 in0.0 mm 0.00 in0.0 mm 0.00 in0.0 mm
12:30 AM 40.1°F4.5°C 36.0°F2.2°C 85% 2.3 mph NE3.7 kmh NE 3.0 mph4.8 kmh 30.11 in1019.6 mb 0.00 in0.0 mm 0.00 in0.0 mm 0.00 in0.0 mm
12:35 AM 40.0°F4.4°C 35.9°F2.2°C 85% 1.5 mph NE2.4 kmh NE 3.0 mph4.8 kmh 30.11 in1019.6 mb 0.00 in0.0 mm 0.00 in0.0 mm 0.00 in0.0 mm
12:40 AM 40.0°F4.4°C 35.9°F2.2°C 85% 1.3 mph NE2.1 kmh NE 3.0 mph4.8 kmh 30.11 in1019.6 mb 0.00 in0.0 mm 0.00 in0.0 mm 0.00 in0.0 mm
12:45 AM 40.0°F4.4°C 35.9°F2.2°C 85% 0.9 mph NE1.4 kmh NE 3.0 mph4.8 kmh 30.11 in1019.6 mb 0.00 in0.0 mm 0.00 in0.0 mm 0.00 in0.0 mm
12:50 AM 40.0°F4.4°C 35.9°F2.2°C 85% 2.0 mph NE3.2 kmh NE 3.0 mph4.8 kmh 30.11 in1019.6 mb 0.00 in0.0 mm 0.00 in0.0 mm 0.00 in0.0 mm
12:55 AM 40.0°F4.4°C 35.9°F2.2°C 85% 2.1 mph NE3.4 kmh NE 3.0 mph4.8 kmh 30.11 in1019.6 mb 0.00 in0.0 mm 0.00 in0.0 mm 0.00 in0.0 mm
01:00 AM 40.0°F4.4°C 35.9°F2.2°C 85% 2.4 mph NE3.9 kmh NE 4.0 mph6.4 kmh 30.11 in1019.6 mb 0.00 in0.0 mm 0.00 in0.0 mm 0.00 in0.0 mm
01:05 AM 40.0°F4.4°C 35.6°F2.0°C 84% 2.1 mph E3.4 kmh E 4.0 mph6.4 kmh 30.11 in1019.6 mb 0.00 in0.0 mm 0.00 in0.0 mm 0.00 in0.0 mm
01:10 AM 39.9°F4.4°C 35.5°F1.9°C 84% 1.6 mph E2.6 kmh E 3.0 mph4.8 kmh 30.11 in1019.6 mb 0.00 in0.0 mm 0.00 in0.0 mm 0.00 in0.0 mm
01:15 AM 39.8°F4.3°C 35.4°F1.9°C 84% 1.8 mph ENE2.9 kmh ENE 4.0 mph6.4 kmh 30.11 in1019.6 mb 0.00 in0.0 mm 0.00 in0.0 mm 0.00 in0.0 mm
01:20 AM 39.7°F4.3°C 35.6°F2.0°C 85% 1.8 mph ENE2.9 kmh ENE 4.0 mph6.4 kmh 30.11 in1019.6 mb 0.00 in0.0 mm 0.00 in0.0 mm 0.00 in0.0 mm
01:25 AM 39.7°F4.3°C 35.6°F2.0°C 85% 1.0 mph ENE1.6 kmh ENE 4.0 mph6.4 kmh 30.11 in1019.6 mb 0.00 in0.0 mm 0.00 in0.0 mm 0.00 in0.0 mm
01:30 AM 39.8°F4.3°C 35.7°F2.1°C 85% 1.5 mph ENE2.4 kmh ENE 2.0 mph3.2 kmh 30.11 in1019.6 mb 0.00 in0.0 mm 0.00 in0.0 mm 0.00 in0.0 mm
01:35 AM 39.9°F4.4°C 35.8°F2.1°C 85% 0.8 mph ENE1.3 kmh ENE 2.0 mph3.2 kmh 30.11 in1019.6 mb 0.00 in0.0 mm 0.00 in0.0 mm 0.00 in0.0 mm
01:40 AM 39.9°F4.4°C 35.8°F2.1°C 85% 0.1 mph ENE0.2 kmh ENE 2.0 mph3.2 kmh 30.11 in1019.6 mb 0.00 in0.0 mm 0.00 in0.0 mm 0.00 in0.0 mm
01:45 AM 39.9°F4.4°C 35.8°F2.1°C 85% 0.1 mph ENE0.2 kmh ENE 1.0 mph1.6 kmh 30.11 in1019.6 mb 0.00 in0.0 mm 0.00 in0.0 mm 0.00 in0.0 mm
01:50 AM 40.0°F4.4°C 35.9°F2.2°C 85% 1.5 mph SSE2.4 kmh SSE 3.0 mph4.8 kmh 30.11 in1019.6 mb 0.00 in0.0 mm 0.00 in0.0 mm 0.00 in0.0 mm
01:55 AM 40.0°F4.4°C 35.9°F2.2°C 85% 1.5 mph S2.4 kmh S 3.0 mph4.8 kmh 30.10 in1019.3 mb 0.00 in0.0 mm 0.00 in0.0 mm 0.00 in0.0 mm
02:00 AM 39.9°F4.4°C 36.1°F2.3°C 86% 1.7 mph S2.7 kmh S 3.0 mph4.8 kmh 30.10 in1019.3 mb 0.00 in0.0 mm 0.00 in0.0 mm 0.00 in0.0 mm
02:05 AM 40.0°F4.4°C 35.9°F2.2°C 85% 3.4 mph S5.5 kmh S 4.0 mph6.4 kmh 30.10 in1019.3 mb 0.00 in0.0 mm 0.00 in0.0 mm 0.00 in0.0 mm
02:10 AM 40.2°F4.6°C 36.1°F2.3°C 85% 3.4 mph S5.5 kmh S 4.0 mph6.4 kmh 30.10 in1019.3 mb 0.00 in0.0 mm 0.00 in0.0 mm 0.00 in0.0 mm
02:15 AM 40.4°F4.7°C 36.3°F2.4°C 85% 2.7 mph S4.3 kmh S 4.0 mph6.4 kmh 30.10 in1019.3 mb 0.00 in0.0 mm 0.00 in0.0 mm 0.00 in0.0 mm
02:20 AM 40.5°F4.7°C 36.1°F2.3°C 84% 2.8 mph S4.5 kmh S 4.0 mph6.4 kmh 30.09 in1019.0 mb 0.00 in0.0 mm 0.00 in0.0 mm 0.00 in0.0 mm
02:25 AM 40.5°F4.7°C 36.1°F2.3°C 84% 3.1 mph S5.0 kmh S 6.0 mph9.7 kmh 30.09 in1019.0 mb 0.00 in0.0 mm 0.00 in0.0 mm 0.00 in0.0 mm
02:30 AM 40.6°F4.8°C 36.2°F2.3°C 84% 2.5 mph SSW4.0 kmh SSW 6.0 mph9.7 kmh 30.09 in1019.0 mb 0.00 in0.0 mm 0.00 in0.0 mm 0.00 in0.0 mm
02:35 AM 40.6°F4.8°C 36.2°F2.3°C 84% 2.0 mph SSW3.2 kmh SSW 3.0 mph4.8 kmh 30.09 in1019.0 mb 0.00 in0.0 mm 0.00 in0.0 mm 0.00 in0.0 mm
02:40 AM 40.7°F4.8°C 36.2°F2.3°C 84% 1.9 mph SSW3.1 kmh SSW 3.0 mph4.8 kmh 30.09 in1019.0 mb 0.00 in0.0 mm 0.00 in0.0 mm 0.00 in0.0 mm
02:45 AM 40.7°F4.8°C 36.2°F2.3°C 84% 1.8 mph SSW2.9 kmh SSW 3.0 mph4.8 kmh 30.09 in1019.0 mb 0.00 in0.0 mm 0.00 in0.0 mm 0.00 in0.0 mm
02:50 AM 40.7°F4.8°C 36.2°F2.3°C 84% 1.4 mph SSW2.3 kmh SSW 3.0 mph4.8 kmh 30.09 in1019.0 mb 0.00 in0.0 mm 0.00 in0.0 mm 0.00 in0.0 mm
02:55 AM 40.7°F4.8°C 36.2°F2.3°C 84% 1.4 mph SSW2.3 kmh SSW 3.0 mph4.8 kmh 30.09 in1019.0 mb 0.00 in0.0 mm 0.00 in0.0 mm 0.00 in0.0 mm
03:00 AM 40.6°F4.8°C 36.2°F2.3°C 84% 1.8 mph SSW2.9 kmh SSW 3.0 mph4.8 kmh 30.08 in1018.6 mb 0.00 in0.0 mm 0.00 in0.0 mm 0.00 in0.0 mm
03:05 AM 40.6°F4.8°C 36.2°F2.3°C 84% 1.5 mph SSW2.4 kmh SSW 3.0 mph4.8 kmh 30.08 in1018.6 mb 0.00 in0.0 mm 0.00 in0.0 mm 0.00 in0.0 mm
03:10 AM 40.5°F4.7°C 36.1°F2.3°C 84% 1.6 mph SSW2.6 kmh SSW 3.0 mph4.8 kmh 30.08 in1018.6 mb 0.00 in0.0 mm 0.00 in0.0 mm 0.00 in0.0 mm
03:15 AM 40.4°F4.7°C 36.0°F2.2°C 84% 1.3 mph SSW2.1 kmh SSW 3.0 mph4.8 kmh 30.08 in1018.6 mb 0.00 in0.0 mm 0.00 in0.0 mm 0.00 in0.0 mm
03:20 AM 40.3°F4.6°C 35.9°F2.2°C 84% 1.7 mph S2.7 kmh S 3.0 mph4.8 kmh 30.08 in1018.6 mb 0.00 in0.0 mm 0.00 in0.0 mm 0.00 in0.0 mm
03:25 AM 40.2°F4.6°C 35.8°F2.1°C 84% 1.9 mph SSW3.1 kmh SSW 3.0 mph4.8 kmh 30.08 in1018.6 mb 0.00 in0.0 mm 0.00 in0.0 mm 0.00 in0.0 mm
03:30 AM 40.3°F4.6°C 35.9°F2.2°C 84% 1.8 mph S2.9 kmh S 4.0 mph6.4 kmh 30.08 in1018.6 mb 0.00 in0.0 mm 0.00 in0.0 mm 0.00 in0.0 mm
03:35 AM 40.3°F4.6°C 35.9°F2.2°C 84% 1.2 mph SSE1.9 kmh SSE 4.0 mph6.4 kmh 30.08 in1018.6 mb 0.00 in0.0 mm 0.00 in0.0 mm 0.00 in0.0 mm
03:40 AM 40.4°F4.7°C 36.0°F2.2°C 84% 0.1 mph SSE0.2 kmh SSE 3.0 mph4.8 kmh 30.08 in1018.6 mb 0.00 in0.0 mm 0.00 in0.0 mm 0.00 in0.0 mm
03:45 AM 40.4°F4.7°C 36.0°F2.2°C 84% 0.7 mph SSE1.1 kmh SSE 2.0 mph3.2 kmh 30.08 in1018.6 mb 0.00 in0.0 mm 0.00 in0.0 mm 0.00 in0.0 mm
03:50 AM 40.3°F4.6°C 35.9°F2.2°C 84% Calm Calm 2.0 mph3.2 kmh 30.08 in1018.6 mb 0.00 in0.0 mm 0.00 in0.0 mm 0.00 in0.0 mm
03:55 AM 40.4°F4.7°C 36.0°F2.2°C 84% Calm Calm -- 30.08 in1018.6 mb 0.00 in0.0 mm 0.00 in0.0 mm 0.00 in0.0 mm
04:00 AM 40.3°F4.6°C 35.9°F2.2°C 84% 0.2 mph SSE0.3 kmh SSE 1.0 mph1.6 kmh 30.08 in1018.6 mb 0.00 in0.0 mm 0.00 in0.0 mm 0.00 in0.0 mm
04:05 AM 40.4°F4.7°C 36.0°F2.2°C 84% 0.3 mph SSE0.5 kmh SSE 1.0 mph1.6 kmh 30.07 in1018.3 mb 0.00 in0.0 mm 0.00 in0.0 mm 0.00 in0.0 mm
04:10 AM 40.7°F4.8°C 35.9°F2.2°C 83% Calm Calm 1.0 mph1.6 kmh 30.07 in1018.3 mb 0.00 in0.0 mm 0.00 in0.0 mm 0.00 in0.0 mm
04:15 AM 40.8°F4.9°C 36.0°F2.2°C 83% 1.1 mph E1.8 kmh E 4.0 mph6.4 kmh 30.07 in1018.3 mb 0.00 in0.0 mm 0.00 in0.0 mm 0.00 in0.0 mm
04:20 AM 40.8°F4.9°C 35.7°F2.1°C 82% 2.6 mph NE4.2 kmh NE 4.0 mph6.4 kmh 30.08 in1018.6 mb 0.00 in0.0 mm 0.00 in0.0 mm 0.00 in0.0 mm
04:25 AM 40.5°F4.7°C 35.8°F2.1°C 83% 3.0 mph NE4.8 kmh NE 5.0 mph8.0 kmh 30.08 in1018.6 mb 0.00 in0.0 mm 0.00 in0.0 mm 0.00 in0.0 mm
04:30 AM 40.1°F4.5°C 35.7°F2.1°C 84% 3.9 mph ENE6.3 kmh ENE 5.0 mph8.0 kmh 30.08 in1018.6 mb 0.00 in0.0 mm 0.00 in0.0 mm 0.00 in0.0 mm
04:35 AM 39.8°F4.3°C 35.4°F1.9°C 84% 3.5 mph ENE5.6 kmh ENE 5.0 mph8.0 kmh 30.08 in1018.6 mb 0.00 in0.0 mm 0.00 in0.0 mm 0.00 in0.0 mm
04:40 AM 39.5°F4.2°C 35.4°F1.9°C 85% 3.4 mph NE5.5 kmh NE 5.0 mph8.0 kmh 30.08 in1018.6 mb 0.00 in0.0 mm 0.00 in0.0 mm 0.00 in0.0 mm
04:45 AM 39.1°F3.9°C 35.0°F1.7°C 85% 4.1 mph NE6.6 kmh NE 7.0 mph11.3 kmh 30.08 in1018.6 mb 0.00 in0.0 mm 0.00 in0.0 mm 0.00 in0.0 mm
04:50 AM 38.7°F3.7°C 34.9°F1.6°C 86% 4.3 mph NE6.9 kmh NE 7.0 mph11.3 kmh 30.08 in1018.6 mb 0.00 in0.0 mm 0.00 in0.0 mm 0.00 in0.0 mm
04:55 AM 38.4°F3.6°C 34.9°F1.6°C 87% 5.2 mph NE8.4 kmh NE 8.0 mph12.9 kmh 30.08 in1018.6 mb 0.00 in0.0 mm 0.00 in0.0 mm 0.00 in0.0 mm
05:00 AM 38.2°F3.4°C 34.7°F1.5°C 87% 4.2 mph NE6.8 kmh NE 8.0 mph12.9 kmh 30.09 in1019.0 mb 0.00 in0.0 mm 0.00 in0.0 mm 0.00 in0.0 mm
05:05 AM 37.9°F3.3°C 34.7°F1.5°C 88% 4.4 mph NE7.1 kmh NE 8.0 mph12.9 kmh 30.09 in1019.0 mb 0.00 in0.0 mm 0.00 in0.0 mm 0.00 in0.0 mm
05:10 AM 37.9°F3.3°C 34.7°F1.5°C 88% 4.4 mph NE7.1 kmh NE 8.0 mph12.9 kmh 30.09 in1019.0 mb 0.00 in0.0 mm 0.00 in0.0 mm 0.00 in0.0 mm
05:15 AM 37.9°F3.3°C 34.7°F1.5°C 88% 4.1 mph NE6.6 kmh NE 8.0 mph12.9 kmh 30.09 in1019.0 mb 0.00 in0.0 mm 0.00 in0.0 mm 0.00 in0.0 mm
05:20 AM 38.0°F3.3°C 34.8°F1.6°C 88% 4.2 mph ENE6.8 kmh ENE 7.0 mph11.3 kmh 30.09 in1019.0 mb 0.00 in0.0 mm 0.00 in0.0 mm 0.00 in0.0 mm
05:25 AM 38.1°F3.4°C 34.9°F1.6°C 88% 5.1 mph ENE8.2 kmh ENE 8.0 mph12.9 kmh 30.09 in1019.0 mb 0.00 in0.0 mm 0.00 in0.0 mm 0.00 in0.0 mm
05:30 AM 38.1°F3.4°C 34.9°F1.6°C 88% 4.5 mph NE7.2 kmh NE 9.0 mph14.5 kmh 30.09 in1019.0 mb 0.00 in0.0 mm 0.00 in0.0 mm 0.00 in0.0 mm
05:35 AM 38.1°F3.4°C 34.9°F1.6°C 88% 4.3 mph NE6.9 kmh NE 9.0 mph14.5 kmh 30.10 in1019.3 mb 0.00 in0.0 mm 0.00 in0.0 mm 0.00 in0.0 mm
05:40 AM 38.1°F3.4°C 34.9°F1.6°C 88% 4.5 mph NE7.2 kmh NE 7.0 mph11.3 kmh 30.10 in1019.3 mb 0.00 in0.0 mm 0.00 in0.0 mm 0.00 in0.0 mm
05:45 AM 38.0°F3.3°C 34.8°F1.6°C 88% 4.2 mph NE6.8 kmh NE 7.0 mph11.3 kmh 30.10 in1019.3 mb 0.00 in0.0 mm 0.00 in0.0 mm 0.00 in0.0 mm
05:50 AM 38.0°F3.3°C 34.8°F1.6°C 88% 4.1 mph NE6.6 kmh NE 8.0 mph12.9 kmh 30.10 in1019.3 mb 0.00 in0.0 mm 0.00 in0.0 mm 0.00 in0.0 mm
05:55 AM 38.1°F3.4°C 35.2°F1.8°C 89% 4.1 mph NE6.6 kmh NE 8.0 mph12.9 kmh 30.10 in1019.3 mb 0.00 in0.0 mm 0.00 in0.0 mm 0.00 in0.0 mm
06:00 AM 38.2°F3.4°C 35.2°F1.8°C 89% 4.0 mph NE6.4 kmh NE 8.0 mph12.9 kmh 30.10 in1019.3 mb 0.00 in0.0 mm 0.00 in0.0 mm 0.00 in0.0 mm
06:05 AM 38.2°F3.4°C 35.2°F1.8°C 89% 3.5 mph NE5.6 kmh NE 8.0 mph12.9 kmh 30.11 in1019.6 mb 0.00 in0.0 mm 0.00 in0.0 mm 0.00 in0.0 mm
06:10 AM 38.3°F3.5°C 35.3°F1.8°C 89% 3.7 mph NE6.0 kmh NE 7.0 mph11.3 kmh 30.11 in1019.6 mb 0.00 in0.0 mm 0.00 in0.0 mm 0.00 in0.0 mm
06:15 AM 38.4°F3.6°C 35.4°F1.9°C 89% 3.7 mph NE6.0 kmh NE 7.0 mph11.3 kmh 30.11 in1019.6 mb 0.00 in0.0 mm 0.00 in0.0 mm 0.00 in0.0 mm
06:20 AM 38.5°F3.6°C 35.5°F1.9°C 89% 3.8 mph NE6.1 kmh NE 7.0 mph11.3 kmh 30.11 in1019.6 mb 0.00 in0.0 mm 0.00 in0.0 mm 0.00 in0.0 mm
06:25 AM 38.6°F3.7°C 35.6°F2.0°C 89% 3.4 mph NE5.5 kmh NE 7.0 mph11.3 kmh 30.11 in1019.6 mb 0.00 in0.0 mm 0.00 in0.0 mm 0.00 in0.0 mm
06:30 AM 38.8°F3.8°C 35.8°F2.1°C 89% 3.2 mph NE5.1 kmh NE 7.0 mph11.3 kmh 30.11 in1019.6 mb 0.00 in0.0 mm 0.00 in0.0 mm 0.00 in0.0 mm
06:35 AM 39.0°F3.9°C 36.0°F2.2°C 89% 3.3 mph NE5.3 kmh NE 5.0 mph8.0 kmh 30.11 in1019.6 mb 0.00 in0.0 mm 0.00 in0.0 mm 0.00 in0.0 mm
06:40 AM 39.2°F4.0°C 36.2°F2.3°C 89% 3.2 mph NE5.1 kmh NE 5.0 mph8.0 kmh 30.11 in1019.6 mb 0.00 in0.0 mm 0.00 in0.0 mm 0.00 in0.0 mm
06:45 AM 39.5°F4.2°C 36.2°F2.3°C 88% 3.1 mph NE5.0 kmh NE 6.0 mph9.7 kmh 30.11 in1019.6 mb 0.00 in0.0 mm 0.00 in0.0 mm 0.00 in0.0 mm
06:50 AM 39.7°F4.3°C 36.4°F2.4°C 88% 3.6 mph NE5.8 kmh NE 7.0 mph11.3 kmh 30.11 in1019.6 mb 0.00 in0.0 mm 0.00 in0.0 mm 0.00 in0.0 mm
06:55 AM 39.9°F4.4°C 36.6°F2.6°C 88% 3.0 mph NE4.8 kmh NE 7.0 mph11.3 kmh 30.11 in1019.6 mb 0.00 in0.0 mm 0.00 in0.0 mm 0.00 in0.0 mm
07:00 AM 40.1°F4.5°C 36.8°F2.7°C 88% 3.3 mph NE5.3 kmh NE 6.0 mph9.7 kmh 30.11 in1019.6 mb 0.00 in0.0 mm 0.00 in0.0 mm 0.00 in0.0 mm
07:05 AM 40.4°F4.7°C 36.8°F2.7°C 87% 2.6 mph NE4.2 kmh NE 6.0 mph9.7 kmh 30.12 in1020.0 mb 0.00 in0.0 mm 0.00 in0.0 mm 0.00 in0.0 mm
07:10 AM 40.7°F4.8°C 37.1°F2.8°C 87% 3.0 mph NE4.8 kmh NE 6.0 mph9.7 kmh 30.12 in1020.0 mb 0.00 in0.0 mm 0.00 in0.0 mm 0.00 in0.0 mm
07:15 AM 41.0°F5.0°C 37.4°F3.0°C 87% 2.6 mph NE4.2 kmh NE 6.0 mph9.7 kmh 30.12 in1020.0 mb 0.00 in0.0 mm 0.00 in0.0 mm 0.00 in0.0 mm
07:20 AM 41.3°F5.2°C 37.1°F2.8°C 85% 2.4 mph NNE3.9 kmh NNE 7.0 mph11.3 kmh 30.12 in1020.0 mb 0.00 in0.0 mm 0.00 in0.0 mm 0.00 in0.0 mm
07:25 AM 41.6°F5.3°C 37.4°F3.0°C 85% 3.2 mph NE5.1 kmh NE 8.0 mph12.9 kmh 30.12 in1020.0 mb 0.00 in0.0 mm 0.00 in0.0 mm 0.00 in0.0 mm
07:30 AM 42.0°F5.6°C 37.8°F3.2°C 85% 3.2 mph NE5.1 kmh NE 8.0 mph12.9 kmh 30.12 in1020.0 mb 0.00 in0.0 mm 0.00 in0.0 mm 0.00 in0.0 mm
07:35 AM 42.3°F5.7°C 37.8°F3.2°C 84% 3.6 mph NE5.8 kmh NE 8.0 mph12.9 kmh 30.11 in1019.6 mb 0.00 in0.0 mm 0.00 in0.0 mm 0.00 in0.0 mm
07:40 AM 42.6°F5.9°C 37.8°F3.2°C 83% 3.1 mph NE5.0 kmh NE 8.0 mph12.9 kmh 30.11 in1019.6 mb 0.00 in0.0 mm 0.00 in0.0 mm 0.00 in0.0 mm
07:45 AM 42.9°F6.1°C 37.8°F3.2°C 82% 3.2 mph NE5.1 kmh NE 7.0 mph11.3 kmh 30.12 in1020.0 mb 0.00 in0.0 mm 0.00 in0.0 mm 0.00 in0.0 mm
07:50 AM 43.2°F6.2°C 38.1°F3.4°C 82% 2.7 mph NE4.3 kmh NE 6.0 mph9.7 kmh 30.12 in1020.0 mb 0.00 in0.0 mm 0.00 in0.0 mm 0.00 in0.0 mm
07:55 AM 43.4°F6.3°C 38.3°F3.5°C 82% 2.6 mph NE4.2 kmh NE 6.0 mph9.7 kmh 30.12 in1020.0 mb 0.00 in0.0 mm 0.00 in0.0 mm 0.00 in0.0 mm
08:00 AM 43.7°F6.5°C 38.3°F3.5°C 81% 4.3 mph NNE6.9 kmh NNE 8.0 mph12.9 kmh 30.12 in1020.0 mb 0.00 in0.0 mm 0.00 in0.0 mm 0.00 in0.0 mm
08:05 AM 44.1°F6.7°C 38.6°F3.7°C 81% 1.8 mph ENE2.9 kmh ENE 8.0 mph12.9 kmh 30.12 in1020.0 mb 0.00 in0.0 mm 0.00 in0.0 mm 0.00 in0.0 mm
08:10 AM 44.5°F6.9°C 39.0°F3.9°C 81% 3.0 mph E4.8 kmh E 8.0 mph12.9 kmh 30.12 in1020.0 mb 0.00 in0.0 mm 0.00 in0.0 mm 0.00 in0.0 mm
08:15 AM 44.8°F7.1°C 39.0°F3.9°C 80% 2.7 mph NE4.3 kmh NE 8.0 mph12.9 kmh 30.12 in1020.0 mb 0.00 in0.0 mm 0.00 in0.0 mm 0.00 in0.0 mm
08:20 AM 45.1°F7.3°C 39.3°F4.1°C 80% 2.6 mph NE4.2 kmh NE 6.0 mph9.7 kmh 30.12 in1020.0 mb 0.00 in0.0 mm 0.00 in0.0 mm 0.00 in0.0 mm
08:25 AM 45.3°F7.4°C 39.5°F4.2°C 80% 2.9 mph ENE4.7 kmh ENE 6.0 mph9.7 kmh 30.12 in1020.0 mb 0.00 in0.0 mm 0.00 in0.0 mm 0.00 in0.0 mm
08:30 AM 45.5°F7.5°C 39.7°F4.3°C 80% 2.4 mph E3.9 kmh E 7.0 mph11.3 kmh 30.12 in1020.0 mb 0.00 in0.0 mm 0.00 in0.0 mm 0.00 in0.0 mm
08:35 AM 45.8°F7.7°C 40.0°F4.4°C 80% 1.6 mph ENE2.6 kmh ENE 7.0 mph11.3 kmh 30.12 in1020.0 mb 0.00 in0.0 mm 0.00 in0.0 mm 0.00 in0.0 mm
08:40 AM 46.2°F7.9°C 40.4°F4.7°C 80% 2.6 mph E4.2 kmh E 7.0 mph11.3 kmh 30.12 in1020.0 mb 0.00 in0.0 mm 0.00 in0.0 mm 0.00 in0.0 mm
08:45 AM 46.9°F8.3°C 40.4°F4.7°C 78% 1.4 mph E2.3 kmh E 7.0 mph11.3 kmh 30.12 in1020.0 mb 0.00 in0.0 mm 0.00 in0.0 mm 0.00 in0.0 mm
08:50 AM 47.6°F8.7°C 40.8°F4.9°C 77% 1.2 mph ESE1.9 kmh ESE 5.0 mph8.0 kmh 30.11 in1019.6 mb 0.00 in0.0 mm 0.00 in0.0 mm 0.00 in0.0 mm
08:55 AM 48.2°F9.0°C 41.3°F5.2°C 77% 2.9 mph ENE4.7 kmh ENE 7.0 mph11.3 kmh 30.12 in1020.0 mb 0.00 in0.0 mm 0.00 in0.0 mm 0.00 in0.0 mm
09:00 AM 48.5°F9.2°C 41.3°F5.2°C 76% 2.9 mph E4.7 kmh E 7.0 mph11.3 kmh 30.11 in1019.6 mb 0.00 in0.0 mm 0.00 in0.0 mm 0.00 in0.0 mm
09:05 AM 48.7°F9.3°C 41.1°F5.1°C 75% 1.9 mph E3.1 kmh E 7.0 mph11.3 kmh 30.11 in1019.6 mb 0.00 in0.0 mm 0.00 in0.0 mm 0.00 in0.0 mm
09:10 AM 48.9°F9.4°C 41.3°F5.2°C 75% 2.2 mph ESE3.5 kmh ESE 7.0 mph11.3 kmh 30.11 in1019.6 mb 0.00 in0.0 mm 0.00 in0.0 mm 0.00 in0.0 mm
09:15 AM 48.8°F9.3°C 41.2°F5.1°C 75% 1.4 mph SW2.3 kmh SW 5.0 mph8.0 kmh 30.10 in1019.3 mb 0.00 in0.0 mm 0.00 in0.0 mm 0.00 in0.0 mm
09:20 AM 48.7°F9.3°C 41.5°F5.3°C 76% 2.1 mph SW3.4 kmh SW 4.0 mph6.4 kmh 30.10 in1019.3 mb 0.00 in0.0 mm 0.00 in0.0 mm 0.00 in0.0 mm
09:25 AM 48.5°F9.2°C 41.6°F5.3°C 77% 2.0 mph SW3.2 kmh SW 4.0 mph6.4 kmh 30.10 in1019.3 mb 0.00 in0.0 mm 0.00 in0.0 mm 0.00 in0.0 mm
09:30 AM 48.5°F9.2°C 41.6°F5.3°C 77% 3.1 mph SSW5.0 kmh SSW 7.0 mph11.3 kmh 30.10 in1019.3 mb 0.00 in0.0 mm 0.00 in0.0 mm 0.00 in0.0 mm
09:35 AM 48.7°F9.3°C 42.5°F5.8°C 79% 1.8 mph SW2.9 kmh SW 7.0 mph11.3 kmh 30.09 in1019.0 mb 0.00 in0.0 mm 0.00 in0.0 mm 0.00 in0.0 mm
09:40 AM 48.6°F9.2°C 42.1°F5.6°C 78% 3.2 mph SW5.1 kmh SW 7.0 mph11.3 kmh 30.09 in1019.0 mb 0.00 in0.0 mm 0.00 in0.0 mm 0.00 in0.0 mm
09:45 AM 48.7°F9.3°C 42.8°F6.0°C 80% 2.0 mph WSW3.2 kmh WSW 7.0 mph11.3 kmh 30.09 in1019.0 mb 0.00 in0.0 mm 0.00 in0.0 mm 0.00 in0.0 mm
09:50 AM 48.7°F9.3°C 42.8°F6.0°C 80% 2.4 mph WSW3.9 kmh WSW 5.0 mph8.0 kmh 30.09 in1019.0 mb 0.00 in0.0 mm 0.00 in0.0 mm 0.00 in0.0 mm
09:55 AM 48.7°F9.3°C 43.5°F6.4°C 82% 2.7 mph W4.3 kmh W 7.0 mph11.3 kmh 30.08 in1018.6 mb 0.00 in0.0 mm 0.00 in0.0 mm 0.00 in0.0 mm
10:00 AM 48.8°F9.3°C 42.9°F6.1°C 80% 2.4 mph S3.9 kmh S 7.0 mph11.3 kmh 30.09 in1019.0 mb 0.00 in0.0 mm 0.00 in0.0 mm 0.00 in0.0 mm
10:05 AM 49.1°F9.5°C 43.5°F6.4°C 81% 1.8 mph SW2.9 kmh SW 5.0 mph8.0 kmh 30.09 in1019.0 mb 0.00 in0.0 mm 0.00 in0.0 mm 0.00 in0.0 mm
10:10 AM 48.8°F9.3°C 43.2°F6.2°C 81% 3.3 mph SW5.3 kmh SW 6.0 mph9.7 kmh 30.09 in1019.0 mb 0.00 in0.0 mm 0.00 in0.0 mm 0.00 in0.0 mm
10:15 AM 48.8°F9.3°C 43.2°F6.2°C 81% 4.6 mph S7.4 kmh S 8.0 mph12.9 kmh 30.09 in1019.0 mb 0.00 in0.0 mm 0.00 in0.0 mm 0.00 in0.0 mm
10:20 AM 49.0°F9.4°C 43.4°F6.3°C 81% 3.2 mph SE5.1 kmh SE 9.0 mph14.5 kmh 30.09 in1019.0 mb 0.00 in0.0 mm 0.00 in0.0 mm 0.00 in0.0 mm
10:25 AM 49.3°F9.6°C 43.7°F6.5°C 81% 1.2 mph SW1.9 kmh SW 9.0 mph14.5 kmh 30.09 in1019.0 mb 0.00 in0.0 mm 0.00 in0.0 mm 0.00 in0.0 mm
10:30 AM 49.5°F9.7°C 43.9°F6.6°C 81% 2.4 mph NE3.9 kmh NE 9.0 mph14.5 kmh 30.09 in1019.0 mb 0.00 in0.0 mm 0.00 in0.0 mm 0.00 in0.0 mm
10:35 AM 50.0°F10.0°C 44.4°F6.9°C 81% 3.4 mph ENE5.5 kmh ENE 9.0 mph14.5 kmh 30.09 in1019.0 mb 0.00 in0.0 mm 0.00 in0.0 mm 0.00 in0.0 mm
10:40 AM 51.2°F10.7°C 45.2°F7.3°C 80% 4.3 mph NE6.9 kmh NE 11.0 mph17.7 kmh 30.09 in1019.0 mb 0.00 in0.0 mm 0.00 in0.0 mm 0.00 in0.0 mm
10:45 AM 52.4°F11.3°C 45.7°F7.6°C 78% 4.2 mph ENE6.8 kmh ENE 11.0 mph17.7 kmh 30.09 in1019.0 mb 0.00 in0.0 mm 0.00 in0.0 mm 0.00 in0.0 mm
10:50 AM 53.3°F11.8°C 45.9°F7.7°C 76% 4.6 mph E7.4 kmh E 10.0 mph16.1 kmh 30.09 in1019.0 mb 0.00 in0.0 mm 0.00 in0.0 mm 0.00 in0.0 mm
10:55 AM 54.0°F12.2°C 45.2°F7.3°C 72% 4.1 mph E6.6 kmh E 10.0 mph16.1 kmh 30.10 in1019.3 mb 0.00 in0.0 mm 0.00 in0.0 mm 0.00 in0.0 mm
11:00 AM 53.7°F12.1°C 44.9°F7.2°C 72% 6.3 mph E10.1 kmh E 12.0 mph19.3 kmh 30.09 in1019.0 mb 0.00 in0.0 mm 0.00 in0.0 mm 0.00 in0.0 mm
11:05 AM 54.1°F12.3°C 46.0°F7.8°C 74% 3.2 mph E5.1 kmh E 12.0 mph19.3 kmh 30.09 in1019.0 mb 0.00 in0.0 mm 0.00 in0.0 mm 0.00 in0.0 mm
11:10 AM 54.8°F12.7°C 45.2°F7.3°C 70% 6.4 mph NE10.3 kmh NE 13.0 mph20.9 kmh 30.09 in1019.0 mb 0.00 in0.0 mm 0.00 in0.0 mm 0.00 in0.0 mm
11:15 AM 55.2°F12.9°C 45.6°F7.6°C 70% 5.4 mph E8.7 kmh E 13.0 mph20.9 kmh 30.09 in1019.0 mb 0.00 in0.0 mm 0.00 in0.0 mm 0.00 in0.0 mm
11:20 AM 55.7°F13.2°C 46.1°F7.8°C 70% 4.8 mph ENE7.7 kmh ENE 12.0 mph19.3 kmh 30.09 in1019.0 mb 0.00 in0.0 mm 0.00 in0.0 mm 0.00 in0.0 mm
11:25 AM 55.8°F13.2°C 46.2°F7.9°C 70% 5.7 mph ENE9.2 kmh ENE 13.0 mph20.9 kmh 30.09 in1019.0 mb 0.00 in0.0 mm 0.00 in0.0 mm 0.00 in0.0 mm
11:30 AM 55.9°F13.3°C 46.3°F7.9°C 70% 5.1 mph E8.2 kmh E 13.0 mph20.9 kmh 30.09 in1019.0 mb 0.00 in0.0 mm 0.00 in0.0 mm 0.00 in0.0 mm
11:35 AM 56.0°F13.3°C 46.4°F8.0°C 70% 5.1 mph E8.2 kmh E 11.0 mph17.7 kmh 30.09 in1019.0 mb 0.00 in0.0 mm 0.00 in0.0 mm 0.00 in0.0 mm
11:40 AM 56.1°F13.4°C 45.7°F7.6°C 68% 5.2 mph E8.4 kmh E 11.0 mph17.7 kmh 30.09 in1019.0 mb 0.00 in0.0 mm 0.00 in0.0 mm 0.00 in0.0 mm
11:45 AM 56.0°F13.3°C 46.0°F7.8°C 69% 3.5 mph E5.6 kmh E 13.0 mph20.9 kmh 30.09 in1019.0 mb 0.00 in0.0 mm 0.00 in0.0 mm 0.00 in0.0 mm
11:50 AM 55.7°F13.2°C 45.3°F7.4°C 68% 4.9 mph ENE7.9 kmh ENE 13.0 mph20.9 kmh 30.09 in1019.0 mb 0.00 in0.0 mm 0.00 in0.0 mm 0.00 in0.0 mm
11:55 AM 54.8°F12.7°C 44.8°F7.1°C 69% 5.9 mph NE9.5 kmh NE 12.0 mph19.3 kmh 30.09 in1019.0 mb 0.00 in0.0 mm 0.00 in0.0 mm 0.00 in0.0 mm
12:00 PM 54.4°F12.4°C 44.8°F7.1°C 70% 5.1 mph E8.2 kmh E 12.0 mph19.3 kmh 30.09 in1019.0 mb 0.00 in0.0 mm 0.00 in0.0 mm 0.00 in0.0 mm
12:05 PM 54.5°F12.5°C 45.3°F7.4°C 71% 5.1 mph ENE8.2 kmh ENE 11.0 mph17.7 kmh 30.09 in1019.0 mb 0.00 in0.0 mm 0.00 in0.0 mm 0.00 in0.0 mm
12:10 PM 54.9°F12.7°C 46.4°F8.0°C 73% 3.7 mph ENE6.0 kmh ENE 9.0 mph14.5 kmh 30.09 in1019.0 mb 0.00 in0.0 mm 0.00 in0.0 mm 0.00 in0.0 mm
12:15 PM 55.0°F12.8°C 45.8°F7.7°C 71% 3.1 mph E5.0 kmh E 9.0 mph14.5 kmh 30.09 in1019.0 mb 0.00 in0.0 mm 0.00 in0.0 mm 0.00 in0.0 mm
12:20 PM 55.0°F12.8°C 46.5°F8.1°C 73% 3.5 mph ENE5.6 kmh ENE 9.0 mph14.5 kmh 30.09 in1019.0 mb 0.00 in0.0 mm 0.00 in0.0 mm 0.00 in0.0 mm
12:25 PM 55.1°F12.8°C 45.9°F7.7°C 71% 5.4 mph NE8.7 kmh NE 14.0 mph22.5 kmh 30.09 in1019.0 mb 0.00 in0.0 mm 0.00 in0.0 mm 0.00 in0.0 mm
12:30 PM 55.0°F12.8°C 46.5°F8.1°C 73% 3.8 mph NE6.1 kmh NE 14.0 mph22.5 kmh 30.09 in1019.0 mb 0.00 in0.0 mm 0.00 in0.0 mm 0.00 in0.0 mm
12:35 PM 55.4°F13.0°C 47.6°F8.7°C 75% 1.8 mph E2.9 kmh E 9.0 mph14.5 kmh 30.09 in1019.0 mb 0.00 in0.0 mm 0.00 in0.0 mm 0.00 in0.0 mm
12:40 PM 56.0°F13.3°C 47.8°F8.8°C 74% 4.4 mph E7.1 kmh E 12.0 mph19.3 kmh 30.09 in1019.0 mb 0.00 in0.0 mm 0.00 in0.0 mm 0.00 in0.0 mm
12:45 PM 56.5°F13.6°C 46.5°F8.1°C 69% 4.2 mph ENE6.8 kmh ENE 12.0 mph19.3 kmh 30.09 in1019.0 mb 0.00 in0.0 mm 0.00 in0.0 mm 0.00 in0.0 mm
12:50 PM 56.3°F13.5°C 46.3°F7.9°C 69% 4.2 mph E6.8 kmh E 9.0 mph14.5 kmh 30.09 in1019.0 mb 0.00 in0.0 mm 0.00 in0.0 mm 0.00 in0.0 mm
12:55 PM 56.3°F13.5°C 45.9°F7.7°C 68% 5.0 mph E8.0 kmh E 11.0 mph17.7 kmh 30.09 in1019.0 mb 0.00 in0.0 mm 0.00 in0.0 mm 0.00 in0.0 mm
01:00 PM 56.3°F13.5°C 45.9°F7.7°C 68% 3.3 mph E5.3 kmh E 11.0 mph17.7 kmh 30.09 in1019.0 mb 0.00 in0.0 mm 0.00 in0.0 mm 0.00 in0.0 mm
01:05 PM 56.5°F13.6°C 47.2°F8.4°C 71% 3.1 mph E5.0 kmh E 8.0 mph12.9 kmh 30.09 in1019.0 mb 0.00 in0.0 mm 0.00 in0.0 mm 0.00 in0.0 mm
01:10 PM 57.0°F13.9°C 46.5°F8.1°C 68% 3.9 mph ENE6.3 kmh ENE 11.0 mph17.7 kmh 30.08 in1018.6 mb 0.00 in0.0 mm 0.00 in0.0 mm 0.00 in0.0 mm
01:15 PM 57.0°F13.9°C 46.5°F8.1°C 68% 3.5 mph ENE5.6 kmh ENE 11.0 mph17.7 kmh 30.08 in1018.6 mb 0.00 in0.0 mm 0.00 in0.0 mm 0.00 in0.0 mm
01:20 PM 56.9°F13.8°C 46.1°F7.8°C 67% 4.7 mph ENE7.6 kmh ENE 11.0 mph17.7 kmh 30.08 in1018.6 mb 0.00 in0.0 mm 0.00 in0.0 mm 0.00 in0.0 mm
01:25 PM 57.3°F14.1°C 46.4°F8.0°C 67% 4.3 mph ENE6.9 kmh ENE 10.0 mph16.1 kmh 30.08 in1018.6 mb 0.00 in0.0 mm 0.00 in0.0 mm 0.00 in0.0 mm
01:30 PM 57.8°F14.3°C 46.9°F8.3°C 67% 4.5 mph ENE7.2 kmh ENE 11.0 mph17.7 kmh 30.08 in1018.6 mb 0.00 in0.0 mm 0.00 in0.0 mm 0.00 in0.0 mm
01:35 PM 58.0°F14.4°C 46.7°F8.2°C 66% 5.2 mph E8.4 kmh E 11.0 mph17.7 kmh 30.08 in1018.6 mb 0.00 in0.0 mm 0.00 in0.0 mm 0.00 in0.0 mm
01:40 PM 57.6°F14.2°C 46.3°F7.9°C 66% 5.3 mph NE8.5 kmh NE 12.0 mph19.3 kmh 30.08 in1018.6 mb 0.00 in0.0 mm 0.00 in0.0 mm 0.00 in0.0 mm
01:45 PM 57.4°F14.1°C 46.1°F7.8°C 66% 5.8 mph NE9.3 kmh NE 12.0 mph19.3 kmh 30.08 in1018.6 mb 0.00 in0.0 mm 0.00 in0.0 mm 0.00 in0.0 mm
01:50 PM 57.3°F14.1°C 46.8°F8.2°C 68% 5.0 mph NE8.0 kmh NE 13.0 mph20.9 kmh 30.07 in1018.3 mb 0.00 in0.0 mm 0.00 in0.0 mm 0.00 in0.0 mm
01:55 PM 57.5°F14.2°C 46.2°F7.9°C 66% 5.5 mph ENE8.9 kmh ENE 13.0 mph20.9 kmh 30.07 in1018.3 mb 0.00 in0.0 mm 0.00 in0.0 mm 0.00 in0.0 mm
02:00 PM 58.3°F14.6°C 46.6°F8.1°C 65% 3.9 mph NE6.3 kmh NE 10.0 mph16.1 kmh 30.07 in1018.3 mb 0.00 in0.0 mm 0.00 in0.0 mm 0.00 in0.0 mm
02:05 PM 58.2°F14.6°C 45.7°F7.6°C 63% 4.2 mph ENE6.8 kmh ENE 11.0 mph17.7 kmh 30.07 in1018.3 mb 0.00 in0.0 mm 0.00 in0.0 mm 0.00 in0.0 mm
02:10 PM 57.6°F14.2°C 45.5°F7.5°C 64% 5.9 mph NE9.5 kmh NE 11.0 mph17.7 kmh 30.07 in1018.3 mb 0.00 in0.0 mm 0.00 in0.0 mm 0.00 in0.0 mm
02:15 PM 57.6°F14.2°C 46.3°F7.9°C 66% 4.2 mph NE6.8 kmh NE 10.0 mph16.1 kmh 30.07 in1018.3 mb 0.00 in0.0 mm 0.00 in0.0 mm 0.00 in0.0 mm
02:20 PM 58.2°F14.6°C 46.1°F7.8°C 64% 3.2 mph NE5.1 kmh NE 9.0 mph14.5 kmh 30.07 in1018.3 mb 0.00 in0.0 mm 0.00 in0.0 mm 0.00 in0.0 mm
02:25 PM 58.5°F14.7°C 46.4°F8.0°C 64% 3.2 mph NE5.1 kmh NE 10.0 mph16.1 kmh 30.07 in1018.3 mb 0.00 in0.0 mm 0.00 in0.0 mm 0.00 in0.0 mm
02:30 PM 57.7°F14.3°C 45.6°F7.6°C 64% 4.6 mph ENE7.4 kmh ENE 11.0 mph17.7 kmh 30.07 in1018.3 mb 0.00 in0.0 mm 0.00 in0.0 mm 0.00 in0.0 mm
02:35 PM 57.1°F13.9°C 45.4°F7.4°C 65% 3.8 mph NE6.1 kmh NE 11.0 mph17.7 kmh 30.07 in1018.3 mb 0.00 in0.0 mm 0.00 in0.0 mm 0.00 in0.0 mm
02:40 PM 57.1°F13.9°C 45.8°F7.7°C 66% 5.3 mph NNE8.5 kmh NNE 11.0 mph17.7 kmh 30.07 in1018.3 mb 0.00 in0.0 mm 0.00 in0.0 mm 0.00 in0.0 mm
02:45 PM 57.3°F14.1°C 46.0°F7.8°C 66% 5.2 mph NE8.4 kmh NE 12.0 mph19.3 kmh 30.07 in1018.3 mb 0.00 in0.0 mm 0.00 in0.0 mm 0.00 in0.0 mm
02:50 PM 57.8°F14.3°C 45.7°F7.6°C 64% 5.0 mph NE8.0 kmh NE 12.0 mph19.3 kmh 30.07 in1018.3 mb 0.00 in0.0 mm 0.00 in0.0 mm 0.00 in0.0 mm
02:55 PM 57.7°F14.3°C 45.6°F7.6°C 64% 4.4 mph NE7.1 kmh NE 11.0 mph17.7 kmh 30.07 in1018.3 mb 0.00 in0.0 mm 0.00 in0.0 mm 0.00 in0.0 mm
03:00 PM 58.0°F14.4°C 46.7°F8.2°C 66% 3.9 mph NE6.3 kmh NE 11.0 mph17.7 kmh 30.06 in1017.9 mb 0.00 in0.0 mm 0.00 in0.0 mm 0.00 in0.0 mm
03:05 PM 59.0°F15.0°C 46.4°F8.0°C 63% 6.5 mph NE10.5 kmh NE 11.0 mph17.7 kmh 30.06 in1017.9 mb 0.00 in0.0 mm 0.00 in0.0 mm 0.00 in0.0 mm
03:10 PM 59.6°F15.3°C 46.6°F8.1°C 62% 2.5 mph E4.0 kmh E 11.0 mph17.7 kmh 30.06 in1017.9 mb 0.00 in0.0 mm 0.00 in0.0 mm 0.00 in0.0 mm
03:15 PM 59.5°F15.3°C 46.0°F7.8°C 61% 3.9 mph E6.3 kmh E 8.0 mph12.9 kmh 30.06 in1017.9 mb 0.00 in0.0 mm 0.00 in0.0 mm 0.00 in0.0 mm
03:20 PM 59.7°F15.4°C 46.2°F7.9°C 61% 4.4 mph NE7.1 kmh NE 11.0 mph17.7 kmh 30.06 in1017.9 mb 0.00 in0.0 mm 0.00 in0.0 mm 0.00 in0.0 mm
03:25 PM 59.7°F15.4°C 46.2°F7.9°C 61% 4.1 mph ENE6.6 kmh ENE 12.0 mph19.3 kmh 30.06 in1017.9 mb 0.00 in0.0 mm 0.00 in0.0 mm 0.00 in0.0 mm
03:30 PM 59.8°F15.4°C 46.3°F7.9°C 61% 4.2 mph NE6.8 kmh NE 12.0 mph19.3 kmh 30.06 in1017.9 mb 0.00 in0.0 mm 0.00 in0.0 mm 0.00 in0.0 mm
03:35 PM 60.1°F15.6°C 46.2°F7.9°C 60% 3.5 mph ENE5.6 kmh ENE 9.0 mph14.5 kmh 30.05 in1017.6 mb 0.00 in0.0 mm 0.00 in0.0 mm 0.00 in0.0 mm
03:40 PM 60.7°F15.9°C 46.3°F7.9°C 59% 3.3 mph ENE5.3 kmh ENE 10.0 mph16.1 kmh 30.05 in1017.6 mb 0.00 in0.0 mm 0.00 in0.0 mm 0.00 in0.0 mm
03:45 PM 60.9°F16.1°C 46.0°F7.8°C 58% 2.5 mph E4.0 kmh E 10.0 mph16.1 kmh 30.05 in1017.6 mb 0.00 in0.0 mm 0.00 in0.0 mm 0.00 in0.0 mm
03:50 PM 60.3°F15.7°C 45.0°F7.2°C 57% 4.0 mph E6.4 kmh E 9.0 mph14.5 kmh 30.05 in1017.6 mb 0.00 in0.0 mm 0.00 in0.0 mm 0.00 in0.0 mm
03:55 PM 59.4°F15.2°C 45.5°F7.5°C 60% 2.8 mph ENE4.5 kmh ENE 11.0 mph17.7 kmh 30.05 in1017.6 mb 0.00 in0.0 mm 0.00 in0.0 mm 0.00 in0.0 mm
04:00 PM 58.7°F14.8°C 44.9°F7.2°C 60% 4.0 mph NE6.4 kmh NE 11.0 mph17.7 kmh 30.05 in1017.6 mb 0.00 in0.0 mm 0.00 in0.0 mm 0.00 in0.0 mm
04:05 PM 58.3°F14.6°C 44.5°F6.9°C 60% 2.8 mph NE4.5 kmh NE 10.0 mph16.1 kmh 30.05 in1017.6 mb 0.00 in0.0 mm 0.00 in0.0 mm 0.00 in0.0 mm
04:10 PM 59.0°F15.0°C 45.1°F7.3°C 60% 2.2 mph NE3.5 kmh NE 8.0 mph12.9 kmh 30.05 in1017.6 mb 0.00 in0.0 mm 0.00 in0.0 mm 0.00 in0.0 mm
04:15 PM 60.0°F15.6°C 45.6°F7.6°C 59% 2.9 mph ENE4.7 kmh ENE 8.0 mph12.9 kmh 30.05 in1017.6 mb 0.00 in0.0 mm 0.00 in0.0 mm 0.00 in0.0 mm
04:20 PM 60.4°F15.8°C 45.6°F7.6°C 58% 4.6 mph ENE7.4 kmh ENE 11.0 mph17.7 kmh 30.04 in1017.3 mb 0.00 in0.0 mm 0.00 in0.0 mm 0.00 in0.0 mm
04:25 PM 59.7°F15.4°C 44.9°F7.2°C 58% 3.3 mph E5.3 kmh E 11.0 mph17.7 kmh 30.05 in1017.6 mb 0.00 in0.0 mm 0.00 in0.0 mm 0.00 in0.0 mm
04:30 PM 58.5°F14.7°C 44.2°F6.8°C 59% 4.0 mph ENE6.4 kmh ENE 11.0 mph17.7 kmh 30.05 in1017.6 mb 0.00 in0.0 mm 0.00 in0.0 mm 0.00 in0.0 mm
04:35 PM 57.3°F14.1°C 44.8°F7.1°C 63% 3.1 mph E5.0 kmh E 11.0 mph17.7 kmh 30.05 in1017.6 mb 0.00 in0.0 mm 0.00 in0.0 mm 0.00 in0.0 mm
04:40 PM 57.2°F14.0°C 45.5°F7.5°C 65% 4.4 mph NE7.1 kmh NE 10.0 mph16.1 kmh 30.05 in1017.6 mb 0.00 in0.0 mm 0.00 in0.0 mm 0.00 in0.0 mm
04:45 PM 57.9°F14.4°C 45.8°F7.7°C 64% 3.7 mph ENE6.0 kmh ENE 10.0 mph16.1 kmh 30.04 in1017.3 mb 0.00 in0.0 mm 0.00 in0.0 mm 0.00 in0.0 mm
04:50 PM 58.7°F14.8°C 46.1°F7.8°C 63% 3.6 mph E5.8 kmh E 9.0 mph14.5 kmh 30.05 in1017.6 mb 0.00 in0.0 mm 0.00 in0.0 mm 0.00 in0.0 mm
04:55 PM 59.3°F15.2°C 45.4°F7.4°C 60% 4.2 mph NE6.8 kmh NE 12.0 mph19.3 kmh 30.05 in1017.6 mb 0.00 in0.0 mm 0.00 in0.0 mm 0.00 in0.0 mm
05:00 PM 58.7°F14.8°C 44.9°F7.2°C 60% 4.9 mph ENE7.9 kmh ENE 12.0 mph19.3 kmh 30.04 in1017.3 mb 0.00 in0.0 mm 0.00 in0.0 mm 0.00 in0.0 mm
05:05 PM 58.0°F14.4°C 45.5°F7.5°C 63% 3.4 mph E5.5 kmh E 10.0 mph16.1 kmh 30.04 in1017.3 mb 0.00 in0.0 mm 0.00 in0.0 mm 0.00 in0.0 mm
05:10 PM 57.8°F14.3°C 45.3°F7.4°C 63% 2.7 mph ENE4.3 kmh ENE 8.0 mph12.9 kmh 30.04 in1017.3 mb 0.00 in0.0 mm 0.00 in0.0 mm 0.00 in0.0 mm
05:15 PM 57.4°F14.1°C 44.9°F7.2°C 63% 3.5 mph E5.6 kmh E 9.0 mph14.5 kmh 30.04 in1017.3 mb 0.00 in0.0 mm 0.00 in0.0 mm 0.00 in0.0 mm
05:20 PM 56.9°F13.8°C 44.8°F7.1°C 64% 1.7 mph E2.7 kmh E 9.0 mph14.5 kmh 30.04 in1017.3 mb 0.00 in0.0 mm 0.00 in0.0 mm 0.00 in0.0 mm
05:25 PM 56.6°F13.7°C 45.4°F7.4°C 66% 2.6 mph E4.2 kmh E 8.0 mph12.9 kmh 30.04 in1017.3 mb 0.00 in0.0 mm 0.00 in0.0 mm 0.00 in0.0 mm
05:30 PM 56.2°F13.4°C 44.6°F7.0°C 65% 4.4 mph ENE7.1 kmh ENE 10.0 mph16.1 kmh 30.04 in1017.3 mb 0.00 in0.0 mm 0.00 in0.0 mm 0.00 in0.0 mm
05:35 PM 55.9°F13.3°C 44.7°F7.1°C 66% 3.4 mph E5.5 kmh E 10.0 mph16.1 kmh 30.04 in1017.3 mb 0.00 in0.0 mm 0.00 in0.0 mm 0.00 in0.0 mm
05:40 PM 55.4°F13.0°C 45.0°F7.2°C 68% 3.0 mph E4.8 kmh E 9.0 mph14.5 kmh 30.04 in1017.3 mb 0.00 in0.0 mm 0.00 in0.0 mm 0.00 in0.0 mm
05:45 PM 55.0°F12.8°C 44.6°F7.0°C 68% 4.0 mph ENE6.4 kmh ENE 9.0 mph14.5 kmh 30.04 in1017.3 mb 0.00 in0.0 mm 0.00 in0.0 mm 0.00 in0.0 mm
05:50 PM 54.5°F12.5°C 44.5°F6.9°C 69% 3.4 mph NE5.5 kmh NE 9.0 mph14.5 kmh 30.04 in1017.3 mb 0.00 in0.0 mm 0.00 in0.0 mm 0.00 in0.0 mm
05:55 PM 54.1°F12.3°C 44.2°F6.8°C 69% 2.3 mph ENE3.7 kmh ENE 9.0 mph14.5 kmh 30.05 in1017.6 mb 0.00 in0.0 mm 0.00 in0.0 mm 0.00 in0.0 mm
06:00 PM 53.8°F12.1°C 44.6°F7.0°C 71% 1.4 mph E2.3 kmh E 6.0 mph9.7 kmh 30.05 in1017.6 mb 0.00 in0.0 mm 0.00 in0.0 mm 0.00 in0.0 mm
06:05 PM 53.6°F12.0°C 44.4°F6.9°C 71% 3.0 mph E4.8 kmh E 8.0 mph12.9 kmh 30.05 in1017.6 mb 0.00 in0.0 mm 0.00 in0.0 mm 0.00 in0.0 mm
06:10 PM 53.4°F11.9°C 44.2°F6.8°C 71% 4.0 mph ENE6.4 kmh ENE 10.0 mph16.1 kmh 30.05 in1017.6 mb 0.00 in0.0 mm 0.00 in0.0 mm 0.00 in0.0 mm
06:15 PM 53.1°F11.7°C 43.9°F6.6°C 71% 4.2 mph E6.8 kmh E 10.0 mph16.1 kmh 30.05 in1017.6 mb 0.00 in0.0 mm 0.00 in0.0 mm 0.00 in0.0 mm
06:20 PM 53.1°F11.7°C 43.9°F6.6°C 71% 3.3 mph E5.3 kmh E 10.0 mph16.1 kmh 30.05 in1017.6 mb 0.00 in0.0 mm 0.00 in0.0 mm 0.00 in0.0 mm
06:25 PM 53.1°F11.7°C 43.9°F6.6°C 71% 2.8 mph E4.5 kmh E 8.0 mph12.9 kmh 30.05 in1017.6 mb 0.00 in0.0 mm 0.00 in0.0 mm 0.00 in0.0 mm
06:30 PM 53.0°F11.7°C 43.9°F6.6°C 71% 3.2 mph E5.1 kmh E 9.0 mph14.5 kmh 30.05 in1017.6 mb 0.00 in0.0 mm 0.00 in0.0 mm 0.00 in0.0 mm
06:35 PM 52.6°F11.4°C 43.8°F6.6°C 72% 3.1 mph E5.0 kmh E 9.0 mph14.5 kmh 30.06 in1017.9 mb 0.00 in0.0 mm 0.00 in0.0 mm 0.00 in0.0 mm
06:40 PM 52.3°F11.3°C 43.5°F6.4°C 72% 2.5 mph E4.0 kmh E 9.0 mph14.5 kmh 30.06 in1017.9 mb 0.00 in0.0 mm 0.00 in0.0 mm 0.00 in0.0 mm
06:45 PM 52.0°F11.1°C 43.3°F6.3°C 72% 3.2 mph E5.1 kmh E 8.0 mph12.9 kmh 30.06 in1017.9 mb 0.00 in0.0 mm 0.00 in0.0 mm 0.00 in0.0 mm
06:50 PM 51.7°F10.9°C 43.3°F6.3°C 73% 2.1 mph E3.4 kmh E 7.0 mph11.3 kmh 30.07 in1018.3 mb 0.00 in0.0 mm 0.00 in0.0 mm 0.00 in0.0 mm
06:55 PM 51.4°F10.8°C 43.4°F6.3°C 74% 1.5 mph E2.4 kmh E 5.0 mph8.0 kmh 30.07 in1018.3 mb 0.00 in0.0 mm 0.00 in0.0 mm 0.00 in0.0 mm
07:00 PM 51.3°F10.7°C 43.6°F6.4°C 75% 2.1 mph E3.4 kmh E 8.0 mph12.9 kmh 30.07 in1018.3 mb 0.00 in0.0 mm 0.00 in0.0 mm 0.00 in0.0 mm
07:05 PM 51.1°F10.6°C 43.5°F6.4°C 75% 2.3 mph E3.7 kmh E 8.0 mph12.9 kmh 30.07 in1018.3 mb 0.00 in0.0 mm 0.00 in0.0 mm 0.00 in0.0 mm
07:10 PM 50.9°F10.5°C 43.6°F6.4°C 76% 1.8 mph E2.9 kmh E 6.0 mph9.7 kmh 30.07 in1018.3 mb 0.00 in0.0 mm 0.00 in0.0 mm 0.00 in0.0 mm
07:15 PM 50.6°F10.3°C 43.3°F6.3°C 76% 1.6 mph E2.6 kmh E 6.0 mph9.7 kmh 30.07 in1018.3 mb 0.00 in0.0 mm 0.00 in0.0 mm 0.00 in0.0 mm
07:20 PM 50.5°F10.3°C 43.2°F6.2°C 76% 1.2 mph ENE1.9 kmh ENE 6.0 mph9.7 kmh 30.07 in1018.3 mb 0.00 in0.0 mm 0.00 in0.0 mm 0.00 in0.0 mm
07:25 PM 50.4°F10.2°C 43.5°F6.4°C 77% 1.8 mph E2.9 kmh E 6.0 mph9.7 kmh 30.08 in1018.6 mb 0.00 in0.0 mm 0.00 in0.0 mm 0.00 in0.0 mm
07:30 PM 50.2°F10.1°C 42.9°F6.1°C 76% 1.4 mph E2.3 kmh E 6.0 mph9.7 kmh 30.08 in1018.6 mb 0.00 in0.0 mm 0.00 in0.0 mm 0.00 in0.0 mm
07:35 PM 50.1°F10.1°C 43.2°F6.2°C 77% 1.5 mph E2.4 kmh E 5.0 mph8.0 kmh 30.08 in1018.6 mb 0.00 in0.0 mm 0.00 in0.0 mm 0.00 in0.0 mm
07:40 PM 49.9°F9.9°C 43.3°F6.3°C 78% 2.6 mph E4.2 kmh E 5.0 mph8.0 kmh 30.08 in1018.6 mb 0.00 in0.0 mm 0.00 in0.0 mm 0.00 in0.0 mm
07:45 PM 49.7°F9.8°C 43.1°F6.2°C 78% 2.0 mph ENE3.2 kmh ENE 6.0 mph9.7 kmh 30.08 in1018.6 mb 0.00 in0.0 mm 0.00 in0.0 mm 0.00 in0.0 mm
07:50 PM 49.6°F9.8°C 43.0°F6.1°C 78% 0.9 mph E1.4 kmh E 6.0 mph9.7 kmh 30.09 in1019.0 mb 0.00 in0.0 mm 0.00 in0.0 mm 0.00 in0.0 mm
07:55 PM 49.4°F9.7°C 42.8°F6.0°C 78% 2.0 mph ENE3.2 kmh ENE 6.0 mph9.7 kmh 30.09 in1019.0 mb 0.00 in0.0 mm 0.00 in0.0 mm 0.00 in0.0 mm
08:00 PM 49.2°F9.6°C 43.0°F6.1°C 79% 2.0 mph ENE3.2 kmh ENE 6.0 mph9.7 kmh 30.09 in1019.0 mb 0.00 in0.0 mm 0.00 in0.0 mm 0.00 in0.0 mm
08:05 PM 49.0°F9.4°C 42.8°F6.0°C 79% 0.9 mph ENE1.4 kmh ENE 6.0 mph9.7 kmh 30.09 in1019.0 mb 0.00 in0.0 mm 0.00 in0.0 mm 0.00 in0.0 mm
08:10 PM 48.7°F9.3°C 42.8°F6.0°C 80% 1.5 mph ENE2.4 kmh ENE 4.0 mph6.4 kmh 30.10 in1019.3 mb 0.00 in0.0 mm 0.00 in0.0 mm 0.00 in0.0 mm
08:15 PM 48.5°F9.2°C 42.6°F5.9°C 80% 1.6 mph ENE2.6 kmh ENE 5.0 mph8.0 kmh 30.10 in1019.3 mb 0.00 in0.0 mm 0.00 in0.0 mm 0.00 in0.0 mm
08:20 PM 48.3°F9.1°C 42.7°F5.9°C 81% 1.5 mph ENE2.4 kmh ENE 5.0 mph8.0 kmh 30.11 in1019.6 mb 0.00 in0.0 mm 0.00 in0.0 mm 0.00 in0.0 mm
08:25 PM 48.2°F9.0°C 42.6°F5.9°C 81% 1.1 mph ENE1.8 kmh ENE 4.0 mph6.4 kmh 30.11 in1019.6 mb 0.00 in0.0 mm 0.00 in0.0 mm 0.00 in0.0 mm
08:30 PM 48.0°F8.9°C 42.5°F5.8°C 81% 0.6 mph ENE1.0 kmh ENE 4.0 mph6.4 kmh 30.11 in1019.6 mb 0.00 in0.0 mm 0.00 in0.0 mm 0.00 in0.0 mm
08:35 PM 47.9°F8.8°C 42.7°F5.9°C 82% 1.2 mph ENE1.9 kmh ENE 4.0 mph6.4 kmh 30.11 in1019.6 mb 0.00 in0.0 mm 0.00 in0.0 mm 0.00 in0.0 mm
08:40 PM 47.7°F8.7°C 42.5°F5.8°C 82% 1.2 mph ENE1.9 kmh ENE 4.0 mph6.4 kmh 30.11 in1019.6 mb 0.00 in0.0 mm 0.00 in0.0 mm 0.00 in0.0 mm
08:45 PM 47.6°F8.7°C 42.4°F5.8°C 82% 0.6 mph ENE1.0 kmh ENE 2.0 mph3.2 kmh 30.11 in1019.6 mb 0.00 in0.0 mm 0.00 in0.0 mm 0.00 in0.0 mm
08:50 PM 47.5°F8.6°C 42.3°F5.7°C 82% 1.3 mph ENE2.1 kmh ENE 4.0 mph6.4 kmh 30.11 in1019.6 mb 0.00 in0.0 mm 0.00 in0.0 mm 0.00 in0.0 mm
08:55 PM 47.5°F8.6°C 42.6°F5.9°C 83% 1.1 mph ENE1.8 kmh ENE 4.0 mph6.4 kmh 30.11 in1019.6 mb 0.00 in0.0 mm 0.00 in0.0 mm 0.00 in0.0 mm
09:00 PM 47.4°F8.6°C 42.5°F5.8°C 83% 0.8 mph ENE1.3 kmh ENE 4.0 mph6.4 kmh 30.12 in1020.0 mb 0.00 in0.0 mm 0.00 in0.0 mm 0.00 in0.0 mm
09:05 PM 47.4°F8.6°C 42.5°F5.8°C 83% 0.7 mph ENE1.1 kmh ENE 4.0 mph6.4 kmh 30.12 in1020.0 mb 0.00 in0.0 mm 0.00 in0.0 mm 0.00 in0.0 mm
09:10 PM 47.4°F8.6°C 42.5°F5.8°C 83% 0.4 mph ENE0.6 kmh ENE 2.0 mph3.2 kmh 30.12 in1020.0 mb 0.00 in0.0 mm 0.00 in0.0 mm 0.00 in0.0 mm
09:15 PM 47.4°F8.6°C 42.5°F5.8°C 83% 0.2 mph ENE0.3 kmh ENE 2.0 mph3.2 kmh 30.13 in1020.3 mb 0.00 in0.0 mm 0.00 in0.0 mm 0.00 in0.0 mm
09:20 PM 47.5°F8.6°C 42.6°F5.9°C 83% 0.7 mph NE1.1 kmh NE 3.0 mph4.8 kmh 30.13 in1020.3 mb 0.00 in0.0 mm 0.00 in0.0 mm 0.00 in0.0 mm
09:25 PM 47.5°F8.6°C 42.6°F5.9°C 83% 1.5 mph NE2.4 kmh NE 4.0 mph6.4 kmh 30.14 in1020.7 mb 0.00 in0.0 mm 0.00 in0.0 mm 0.00 in0.0 mm
09:30 PM 47.6°F8.7°C 42.7°F5.9°C 83% 0.7 mph NE1.1 kmh NE 4.0 mph6.4 kmh 30.14 in1020.7 mb 0.00 in0.0 mm 0.00 in0.0 mm 0.00 in0.0 mm
09:35 PM 47.6°F8.7°C 42.7°F5.9°C 83% 1.6 mph ENE2.6 kmh ENE 5.0 mph8.0 kmh 30.14 in1020.7 mb 0.00 in0.0 mm 0.00 in0.0 mm 0.00 in0.0 mm
09:40 PM 47.6°F8.7°C 42.7°F5.9°C 83% 1.9 mph NE3.1 kmh NE 5.0 mph8.0 kmh 30.14 in1020.7 mb 0.00 in0.0 mm 0.00 in0.0 mm 0.00 in0.0 mm
09:45 PM 47.6°F8.7°C 42.7°F5.9°C 83% 2.3 mph NE3.7 kmh NE 5.0 mph8.0 kmh 30.14 in1020.7 mb 0.00 in0.0 mm 0.00 in0.0 mm 0.00 in0.0 mm
09:50 PM 47.6°F8.7°C 42.7°F5.9°C 83% 1.0 mph ENE1.6 kmh ENE 5.0 mph8.0 kmh 30.15 in1021.0 mb 0.00 in0.0 mm 0.00 in0.0 mm 0.00 in0.0 mm
09:55 PM 47.6°F8.7°C 42.7°F5.9°C 83% 0.7 mph NE1.1 kmh NE 5.0 mph8.0 kmh 30.15 in1021.0 mb 0.00 in0.0 mm 0.00 in0.0 mm 0.00 in0.0 mm
10:00 PM 47.5°F8.6°C 42.6°F5.9°C 83% 1.9 mph ENE3.1 kmh ENE 5.0 mph8.0 kmh 30.15 in1021.0 mb 0.00 in0.0 mm 0.00 in0.0 mm 0.00 in0.0 mm
10:05 PM 47.5°F8.6°C 42.6°F5.9°C 83% 1.2 mph NE1.9 kmh NE 5.0 mph8.0 kmh 30.15 in1021.0 mb 0.00 in0.0 mm 0.00 in0.0 mm 0.00 in0.0 mm
10:10 PM 47.5°F8.6°C 42.6°F5.9°C 83% 1.7 mph NE2.7 kmh NE 5.0 mph8.0 kmh 30.15 in1021.0 mb 0.00 in0.0 mm 0.00 in0.0 mm 0.00 in0.0 mm
10:15 PM 47.5°F8.6°C 42.9°F6.1°C 84% 2.2 mph ENE3.5 kmh ENE 5.0 mph8.0 kmh 30.15 in1021.0 mb 0.00 in0.0 mm 0.00 in0.0 mm 0.00 in0.0 mm
10:20 PM 47.5°F8.6°C 42.9°F6.1°C 84% 1.9 mph ENE3.1 kmh ENE 5.0 mph8.0 kmh 30.14 in1020.7 mb 0.00 in0.0 mm 0.00 in0.0 mm 0.00 in0.0 mm
10:25 PM 47.5°F8.6°C 43.2°F6.2°C 85% 3.1 mph ENE5.0 kmh ENE 8.0 mph12.9 kmh 30.14 in1020.7 mb 0.00 in0.0 mm 0.00 in0.0 mm 0.00 in0.0 mm
10:30 PM 47.5°F8.6°C 43.2°F6.2°C 85% 1.7 mph ENE2.7 kmh ENE 8.0 mph12.9 kmh 30.14 in1020.7 mb 0.00 in0.0 mm 0.00 in0.0 mm 0.00 in0.0 mm
10:35 PM 47.4°F8.6°C 43.4°F6.3°C 86% 2.4 mph ENE3.9 kmh ENE 7.0 mph11.3 kmh 30.14 in1020.7 mb 0.00 in0.0 mm 0.00 in0.0 mm 0.00 in0.0 mm
10:40 PM 47.4°F8.6°C 43.4°F6.3°C 86% 1.3 mph ENE2.1 kmh ENE 7.0 mph11.3 kmh 30.15 in1021.0 mb 0.00 in0.0 mm 0.00 in0.0 mm 0.00 in0.0 mm
10:45 PM 47.5°F8.6°C 43.5°F6.4°C 86% 1.6 mph NE2.6 kmh NE 5.0 mph8.0 kmh 30.14 in1020.7 mb 0.00 in0.0 mm 0.00 in0.0 mm 0.00 in0.0 mm
10:50 PM 47.4°F8.6°C 43.7°F6.5°C 87% 0.9 mph NE1.4 kmh NE 4.0 mph6.4 kmh 30.15 in1021.0 mb 0.00 in0.0 mm 0.00 in0.0 mm 0.00 in0.0 mm
10:55 PM 47.4°F8.6°C 43.7°F6.5°C 87% 1.5 mph ENE2.4 kmh ENE 5.0 mph8.0 kmh 30.14 in1020.7 mb 0.00 in0.0 mm 0.00 in0.0 mm 0.00 in0.0 mm
11:00 PM 47.4°F8.6°C 44.0°F6.7°C 88% 2.0 mph E3.2 kmh E 6.0 mph9.7 kmh 30.14 in1020.7 mb 0.00 in0.0 mm 0.00 in0.0 mm 0.00 in0.0 mm
11:05 PM 47.3°F8.5°C 43.9°F6.6°C 88% 2.2 mph E3.5 kmh E 6.0 mph9.7 kmh 30.14 in1020.7 mb 0.00 in0.0 mm 0.00 in0.0 mm 0.00 in0.0 mm
11:10 PM 47.2°F8.4°C 43.8°F6.6°C 88% 3.1 mph E5.0 kmh E 7.0 mph11.3 kmh 30.14 in1020.7 mb 0.00 in0.0 mm 0.00 in0.0 mm 0.00 in0.0 mm
11:15 PM 47.1°F8.4°C 44.0°F6.7°C 89% 2.6 mph ENE4.2 kmh ENE 7.0 mph11.3 kmh 30.14 in1020.7 mb 0.00 in0.0 mm 0.00 in0.0 mm 0.00 in0.0 mm
11:20 PM 47.0°F8.3°C 43.9°F6.6°C 89% 2.7 mph E4.3 kmh E 7.0 mph11.3 kmh 30.14 in1020.7 mb 0.00 in0.0 mm 0.00 in0.0 mm 0.00 in0.0 mm
11:25 PM 46.9°F8.3°C 43.8°F6.6°C 89% 1.7 mph E2.7 kmh E 7.0 mph11.3 kmh 30.14 in1020.7 mb 0.00 in0.0 mm 0.00 in0.0 mm 0.00 in0.0 mm
11:30 PM 46.8°F8.2°C 43.7°F6.5°C 89% 1.4 mph E2.3 kmh E 5.0 mph8.0 kmh 30.14 in1020.7 mb 0.00 in0.0 mm 0.00 in0.0 mm 0.00 in0.0 mm
11:35 PM 46.7°F8.2°C 43.9°F6.6°C 90% 2.2 mph ENE3.5 kmh ENE 5.0 mph8.0 kmh 30.14 in1020.7 mb 0.00 in0.0 mm 0.00 in0.0 mm 0.00 in0.0 mm
11:40 PM 46.7°F8.2°C 43.9°F6.6°C 90% 1.5 mph ENE2.4 kmh ENE 5.0 mph8.0 kmh 30.14 in1020.7 mb 0.00 in0.0 mm 0.00 in0.0 mm 0.00 in0.0 mm
11:45 PM 46.7°F8.2°C 43.9°F6.6°C 90% 1.4 mph ENE2.3 kmh ENE 4.0 mph6.4 kmh 30.14 in1020.7 mb 0.00 in0.0 mm 0.00 in0.0 mm 0.00 in0.0 mm
11:50 PM 46.7°F8.2°C 43.9°F6.6°C 90% 1.7 mph NE2.7 kmh NE 4.0 mph6.4 kmh 30.14 in1020.7 mb 0.00 in0.0 mm 0.00 in0.0 mm 0.00 in0.0 mm
11:55 PM 46.7°F8.2°C 43.9°F6.6°C 90% 2.7 mph ENE4.3 kmh ENE 5.0 mph8.0 kmh 30.14 in1020.7 mb 0.00 in0.0 mm 0.00 in0.0 mm 0.00 in0.0 mm